Etusivu
METAR-TAF:

METAR-TAF

Lentoasemat :

Ngaoundéré, Kamerun

Leveyspiiri: 07-21N, Pituuspiiri: 013-34E, korkeus merenpinnasta: 1114 m

Tämänhetkinen sää

Tämä raportti tehtiin 1 tunti ja 3 minuuttia sitten, kello 10.00 UTC
Tuuli 4 kn idästä/kaakosta
Lämpötila 28°C
Kosteus 58%
Ilmanpaine 1017 hPa
Näkyvyys 10 km tai enemmän
Muutamia pilviä 1600 ft:n korkeudessa

METAR: FKKN 231000Z 12004KT 9999 FEW016 28/19 Q1017

Aika: 12:03 (11:03 UTC)


TAF: puuttuu

Säähavainnot ja -ennusteet yli 4000 lentoasemalta (METAR- ja TAF-raportit).

Käytössä olevat sääasemat on merkitty karttaan keltaisilla ja punaisilla pisteillä.

Aseta hiiri pisteen päälle nähdäksesi sääaseman nimen.

Klikkaa sitten nähdäksesi säähavainnot ja -ennusteet.

Kartan vaihtaminen: klikkaa mustalla rastilla varustettuja vihreitä pisteitä, niin voit zoomata sisään; viivalla varustettua vihreää pistettä, niin voit zoomata ulos tai vihreitä nuolia, niin pääset viereisille kartoille.


METAR-TAF: